Time,TemperatureF,DewpointF,PressureIn,WindDirection,WindDirectionDegrees,WindSpeedMPH,WindSpeedGustMPH,Humidity,HourlyPrecipIn,Conditions,Clouds,dailyrainin,SoftwareType,DateUTC
2013-09-14 00:13:00,78.0,68.0,29.93,East,99,0.0,3.0,71,0.00,,,0.00,,2013-09-14 05:13:00,
2013-09-14 00:22:00,77.0,68.0,29.93,East,94,1.0,4.0,73,0.00,,,0.00,,2013-09-14 05:22:00,
2013-09-14 00:43:00,77.0,67.0,29.93,East,91,0.0,3.0,72,0.00,,,0.00,,2013-09-14 05:43:00,
2013-09-14 00:52:00,77.0,67.0,29.93,East,101,2.0,5.0,72,0.00,,,0.00,,2013-09-14 05:52:00,
2013-09-14 01:12:00,77.0,68.0,29.92,East,82,2.0,5.0,73,0.00,,,0.00,,2013-09-14 06:12:00,
2013-09-14 01:21:00,77.0,68.0,29.92,ESE,122,2.0,6.0,73,0.00,,,0.00,,2013-09-14 06:21:00,
2013-09-14 01:42:00,76.0,67.0,29.92,East,79,2.0,5.0,74,0.00,,,0.00,,2013-09-14 06:42:00,
2013-09-14 01:52:00,76.0,67.0,29.93,East,93,0.0,4.0,75,0.00,,,0.00,,2013-09-14 06:52:00,
2013-09-14 02:12:00,76.0,67.0,29.92,East,83,1.0,4.0,75,0.00,,,0.00,,2013-09-14 07:12:00,
2013-09-14 02:21:00,76.0,68.0,29.93,ESE,119,1.0,5.0,76,0.00,,,0.00,,2013-09-14 07:21:00,
2013-09-14 02:42:00,75.0,67.0,29.93,East,96,0.0,4.0,77,0.00,,,0.00,,2013-09-14 07:42:00,
2013-09-14 02:52:00,75.0,68.0,29.93,East,98,1.0,4.0,78,0.00,,,0.00,,2013-09-14 07:52:00,
2013-09-14 03:12:00,74.0,67.0,29.93,East,82,0.0,4.0,78,0.00,,,0.00,,2013-09-14 08:12:00,
2013-09-14 03:22:00,74.0,67.0,29.92,ENE,76,3.0,5.0,79,0.00,,,0.00,,2013-09-14 08:22:00,
2013-09-14 03:42:00,74.0,67.0,29.92,ENE,75,2.0,5.0,80,0.00,,,0.00,,2013-09-14 08:42:00,
2013-09-14 03:52:00,73.0,67.0,29.92,ESE,108,1.0,5.0,81,0.00,,,0.00,,2013-09-14 08:52:00,
2013-09-14 04:12:00,73.0,67.0,29.91,East,100,0.0,3.0,81,0.00,,,0.00,,2013-09-14 09:12:00,
2013-09-14 04:21:00,73.0,68.0,29.91,East,86,1.0,4.0,83,0.00,,,0.00,,2013-09-14 09:21:00,
2013-09-14 04:43:00,72.0,67.0,29.91,ENE,73,1.0,3.0,84,0.00,,,0.00,,2013-09-14 09:43:00,
2013-09-14 04:53:00,72.0,67.0,29.92,East,92,2.0,4.0,84,0.00,,,0.00,,2013-09-14 09:53:00,
2013-09-14 05:12:00,72.0,67.0,29.92,ENE,63,2.0,5.0,84,0.00,,,0.00,,2013-09-14 10:12:00,
2013-09-14 05:23:00,71.0,66.0,29.92,East,82,1.0,5.0,84,0.00,,,0.00,,2013-09-14 10:23:00,
2013-09-14 05:53:00,71.0,63.0,29.93,ESE,115,1.0,4.0,76,0.00,,,0.00,,2013-09-14 10:53:00,
2013-09-14 06:12:00,71.0,62.0,29.93,ENE,74,2.0,6.0,74,0.00,,,0.00,,2013-09-14 11:12:00,
2013-09-14 06:22:00,71.0,62.0,29.93,SE,124,3.0,7.0,73,0.00,,,0.00,,2013-09-14 11:22:00,
2013-09-14 06:42:00,70.0,60.0,29.94,East,96,2.0,8.0,70,0.00,,,0.00,,2013-09-14 11:42:00,
2013-09-14 06:52:00,70.0,60.0,29.94,East,79,3.0,6.0,71,0.00,,,0.00,,2013-09-14 11:52:00,
2013-09-14 07:12:00,69.0,59.0,29.95,East,96,2.0,6.0,71,0.00,,,0.00,,2013-09-14 12:12:00,
2013-09-14 07:22:00,69.0,58.0,29.96,ESE,103,2.0,6.0,69,0.00,,,0.00,,2013-09-14 12:22:00,
2013-09-14 07:52:00,69.0,57.0,29.96,East,81,4.0,9.0,65,0.00,,,0.00,,2013-09-14 12:52:00,
2013-09-14 08:12:00,70.0,57.0,29.96,ENE,76,3.0,8.0,63,0.00,,,0.00,,2013-09-14 13:12:00,
2013-09-14 08:21:00,70.0,57.0,29.97,East,83,2.0,10.0,63,0.00,,,0.00,,2013-09-14 13:21:00,
2013-09-14 08:42:00,70.0,56.0,29.98,ESE,113,1.0,9.0,61,0.00,,,0.00,,2013-09-14 13:42:00,
2013-09-14 08:52:00,70.0,56.0,29.97,East,79,1.0,8.0,61,0.00,,,0.00,,2013-09-14 13:52:00,
2013-09-14 09:12:00,70.0,55.0,29.98,SSE,148,4.0,9.0,59,0.00,,,0.00,,2013-09-14 14:12:00,
2013-09-14 09:22:00,71.0,55.0,29.98,WSW,243,1.0,10.0,57,0.00,,,0.00,,2013-09-14 14:22:00,
2013-09-14 09:42:00,72.0,55.0,29.98,SE,129,0.0,6.0,56,0.00,,,0.00,,2013-09-14 14:42:00,
2013-09-14 09:52:00,73.0,55.0,29.99,SW,221,1.0,6.0,53,0.00,,,0.00,,2013-09-14 14:52:00,
2013-09-14 10:11:00,75.0,54.0,29.99,ESE,117,4.0,10.0,48,0.00,,,0.00,,2013-09-14 15:11:00,
2013-09-14 10:22:00,75.0,54.0,29.99,NE,43,1.0,8.0,48,0.00,,,0.00,,2013-09-14 15:22:00,
2013-09-14 10:43:00,76.0,54.0,29.99,WSW,251,2.0,9.0,46,0.00,,,0.00,,2013-09-14 15:43:00,
2013-09-14 10:53:00,77.0,54.0,30.00,WSW,239,2.0,9.0,45,0.00,,,0.00,,2013-09-14 15:53:00,
2013-09-14 11:13:00,78.0,54.0,30.00,East,91,5.0,12.0,44,0.00,,,0.00,,2013-09-14 16:13:00,
2013-09-14 11:23:00,79.0,55.0,30.00,ESE,122,3.0,11.0,43,0.00,,,0.00,,2013-09-14 16:23:00,
2013-09-14 11:44:00,80.0,55.0,29.99,WSW,249,2.0,12.0,43,0.00,,,0.00,,2013-09-14 16:44:00,
2013-09-14 11:54:00,81.0,56.0,29.99,NE,41,2.0,6.0,43,0.00,,,0.00,,2013-09-14 16:54:00,
2013-09-14 12:11:00,81.0,55.0,29.99,East,85,1.0,11.0,41,0.00,,,0.00,,2013-09-14 17:11:00,
2013-09-14 12:23:00,82.0,57.0,29.98,SW,215,2.0,11.0,42,0.00,,,0.00,,2013-09-14 17:23:00,
2013-09-14 12:43:00,83.0,57.0,29.98,East,100,1.0,8.0,41,0.00,,,0.00,,2013-09-14 17:43:00,
2013-09-14 12:54:00,82.0,56.0,29.97,ENE,77,4.0,10.0,41,0.00,,,0.00,,2013-09-14 17:54:00,
2013-09-14 13:12:00,82.0,57.0,29.97,SE,141,2.0,9.0,43,0.00,,,0.00,,2013-09-14 18:12:00,
2013-09-14 13:22:00,84.0,58.0,29.97,SW,232,2.0,9.0,42,0.00,,,0.00,,2013-09-14 18:22:00,
2013-09-14 13:43:00,83.0,58.0,29.97,SE,133,3.0,8.0,42,0.00,,,0.00,,2013-09-14 18:43:00,
2013-09-14 13:52:00,85.0,60.0,29.96,South,186,1.0,3.0,43,0.00,,,0.00,,2013-09-14 18:52:00,
2013-09-14 14:11:00,86.0,60.0,29.95,SW,230,1.0,6.0,41,0.00,,,0.00,,2013-09-14 19:11:00,
2013-09-14 14:22:00,85.0,59.0,29.94,East,96,1.0,6.0,42,0.00,,,0.00,,2013-09-14 19:22:00,
2013-09-14 14:42:00,87.0,60.0,29.93,SSW,200,2.0,7.0,41,0.00,,,0.00,,2013-09-14 19:42:00,
2013-09-14 14:52:00,88.0,61.0,29.93,SE,132,2.0,8.0,40,0.00,,,0.00,,2013-09-14 19:52:00,
2013-09-14 15:12:00,88.0,60.0,29.93,WSW,244,5.0,11.0,39,0.00,,,0.00,,2013-09-14 20:12:00,
2013-09-14 15:22:00,88.0,60.0,29.93,ESE,118,3.0,9.0,39,0.00,,,0.00,,2013-09-14 20:22:00,
2013-09-14 15:42:00,88.0,60.0,29.92,East,95,4.0,13.0,39,0.00,,,0.00,,2013-09-14 20:42:00,
2013-09-14 15:52:00,88.0,59.0,29.91,SE,146,1.0,9.0,38,0.00,,,0.00,,2013-09-14 20:52:00,
2013-09-14 16:11:00,88.0,60.0,29.91,South,173,1.0,10.0,39,0.00,,,0.00,,2013-09-14 21:11:00,
2013-09-14 16:22:00,87.0,60.0,29.91,ENE,75,3.0,7.0,40,0.00,,,0.00,,2013-09-14 21:22:00,
2013-09-14 16:44:00,87.0,60.0,29.90,ENE,78,0.0,7.0,41,0.00,,,0.00,,2013-09-14 21:44:00,
2013-09-14 16:54:00,88.0,60.0,29.90,WSW,251,4.0,9.0,39,0.00,,,0.00,,2013-09-14 21:54:00,
2013-09-14 17:13:00,89.0,60.0,29.89,ENE,78,3.0,9.0,38,0.00,,,0.00,,2013-09-14 22:13:00,
2013-09-14 17:24:00,89.0,60.0,29.89,East,82,5.0,9.0,38,0.00,,,0.00,,2013-09-14 22:24:00,
2013-09-14 17:42:00,89.0,60.0,29.89,East,90,4.0,9.0,38,0.00,,,0.00,,2013-09-14 22:42:00,
2013-09-14 17:53:00,89.0,59.0,29.89,ENE,58,4.0,11.0,37,0.00,,,0.00,,2013-09-14 22:53:00,
2013-09-14 18:11:00,88.0,59.0,29.88,SE,139,6.0,10.0,38,0.00,,,0.00,,2013-09-14 23:11:00,
2013-09-14 18:23:00,88.0,60.0,29.88,South,181,1.0,8.0,39,0.00,,,0.00,,2013-09-14 23:23:00,
2013-09-14 18:53:00,87.0,60.0,29.89,ESE,113,2.0,9.0,40,0.00,,,0.00,,2013-09-14 23:53:00,
2013-09-14 19:12:00,87.0,60.0,29.89,ESE,113,4.0,10.0,40,0.00,,,0.00,,2013-09-15 00:12:00,
2013-09-14 19:22:00,86.0,60.0,29.89,SSE,155,1.0,10.0,41,0.00,,,0.00,,2013-09-15 00:22:00,
2013-09-14 19:42:00,86.0,60.0,29.89,ENE,78,2.0,6.0,41,0.00,,,0.00,,2013-09-15 00:42:00,
2013-09-14 19:53:00,85.0,60.0,29.90,East,91,2.0,7.0,43,0.00,,,0.00,,2013-09-15 00:53:00,
2013-09-14 20:11:00,84.0,59.0,29.90,ESE,122,2.0,5.0,43,0.00,,,0.00,,2013-09-15 01:11:00,
2013-09-14 20:22:00,83.0,59.0,29.90,East,85,0.0,4.0,45,0.00,,,0.00,,2013-09-15 01:22:00,
2013-09-14 20:42:00,82.0,59.0,29.90,East,96,0.0,4.0,46,0.00,,,0.00,,2013-09-15 01:42:00,
2013-09-14 20:52:00,81.0,59.0,29.91,ESE,110,0.0,1.0,47,0.00,,,0.00,,2013-09-15 01:52:00,
2013-09-14 21:12:00,81.0,60.0,29.91,East,84,0.0,3.0,49,0.00,,,0.00,,2013-09-15 02:12:00,
2013-09-14 21:22:00,81.0,60.0,29.91,ESE,113,1.0,3.0,49,0.00,,,0.00,,2013-09-15 02:22:00,
2013-09-14 21:42:00,80.0,60.0,29.92,ESE,117,0.0,3.0,51,0.00,,,0.00,,2013-09-15 02:42:00,
2013-09-14 21:52:00,79.0,60.0,29.93,East,100,0.0,2.0,52,0.00,,,0.00,,2013-09-15 02:52:00,
2013-09-14 22:11:00,78.0,60.0,29.93,ESE,110,0.0,1.0,54,0.00,,,0.00,,2013-09-15 03:11:00,
2013-09-14 22:22:00,77.0,60.0,29.93,SSE,153,0.0,1.0,55,0.00,,,0.00,,2013-09-15 03:22:00,
2013-09-14 22:44:00,77.0,60.0,29.94,SSE,160,0.0,1.0,56,0.00,,,0.00,,2013-09-15 03:44:00,
2013-09-14 22:55:00,76.0,60.0,29.94,SE,146,0.0,3.0,57,0.00,,,0.00,,2013-09-15 03:55:00,
2013-09-14 23:02:00,-999.0,-99.9,29.94,SE,139,0.0,2.0,-999,-99.99,,,-99.99,,2013-09-15 04:02:00,
2013-09-14 23:14:00,76.0,60.0,29.94,SE,139,0.0,2.0,58,0.00,,,0.00,,2013-09-15 04:14:00,
2013-09-14 23:24:00,76.0,60.0,29.95,SSE,155,0.0,3.0,58,0.00,,,0.00,,2013-09-15 04:24:00,
2013-09-14 23:43:00,75.0,59.0,29.95,SE,141,0.0,2.0,58,0.00,,,0.00,,2013-09-15 04:43:00,
2013-09-14 23:54:00,75.0,60.0,29.95,ESE,108,0.0,2.0,59,0.00,,,0.00,,2013-09-15 04:54:00,